createdAt,value
2023-02-03T01:17:33.524Z,0.62
2023-02-03T01:27:55.190Z,0.63
2023-02-03T01:38:18.743Z,0.61
2023-02-03T01:48:39.756Z,0.60
2023-02-03T01:59:01.312Z,0.51
2023-02-03T02:09:25.702Z,0.45
2023-02-03T02:20:22.474Z,0.51
2023-02-03T02:31:38.913Z,0.48
2023-02-03T02:42:24.354Z,0.48
2023-02-03T02:52:48.434Z,0.43
2023-02-03T03:03:21.325Z,0.39
2023-02-03T03:13:50.918Z,0.45
2023-02-03T03:24:21.630Z,0.50
2023-02-03T03:34:43.488Z,0.50
2023-02-03T03:45:11.952Z,0.48
2023-02-03T03:55:36.536Z,0.45
2023-02-03T04:05:57.831Z,0.45
2023-02-03T04:16:18.805Z,0.43
2023-02-03T04:26:41.259Z,0.41
2023-02-03T04:37:02.925Z,0.40
2023-02-03T04:47:24.078Z,0.37
2023-02-03T04:57:45.464Z,0.44
2023-02-03T05:08:06.597Z,0.44
2023-02-03T05:18:27.582Z,0.47
2023-02-03T05:28:48.680Z,0.46
2023-02-03T05:39:10.119Z,0.48
2023-02-03T05:49:31.184Z,0.52
2023-02-03T05:59:52.209Z,0.63
2023-02-03T06:10:13.855Z,0.74
2023-02-03T06:20:35.637Z,0.81
2023-02-03T06:30:57.280Z,0.82
2023-02-03T06:41:19.094Z,0.83
2023-02-03T06:51:40.425Z,0.79
2023-02-03T10:50:33.754Z,0.64
2023-02-03T11:01:05.677Z,0.87
2023-02-03T11:11:34.062Z,1.11
2023-02-03T11:22:00.105Z,1.11
2023-02-03T11:32:35.623Z,0.72
2023-02-03T11:42:56.830Z,0.72
2023-02-03T11:53:57.293Z,0.99
2023-02-03T12:04:45.508Z,0.98
2023-02-03T12:15:31.783Z,0.97
2023-02-03T12:26:13.955Z,1.00
2023-02-03T12:36:58.600Z,1.03
2023-02-03T12:47:44.548Z,0.92
2023-02-03T12:58:22.079Z,0.88
2023-02-03T13:09:13.504Z,0.80
2023-02-03T13:20:00.855Z,0.67
2023-02-03T13:30:49.018Z,0.55
2023-02-03T13:41:37.078Z,0.42
2023-02-03T13:51:58.467Z,0.26
2023-02-03T14:02:20.392Z,0.14
2023-02-03T14:12:50.825Z,0.06
2023-02-03T14:23:34.393Z,-0.01
2023-02-03T14:34:06.814Z,-0.07
2023-02-03T14:44:50.899Z,-0.08
2023-02-03T14:55:36.920Z,-0.15
2023-02-03T15:06:05.246Z,-0.24
2023-02-03T15:16:27.153Z,-0.32
2023-02-03T15:26:52.002Z,-0.40
2023-02-03T15:37:31.629Z,-0.45
2023-02-03T15:48:04.657Z,-0.50
2023-02-03T15:58:37.092Z,-0.51
2023-02-03T16:08:59.754Z,-0.59
2023-02-03T16:19:23.478Z,-0.64
2023-02-03T16:30:02.817Z,-0.65
2023-02-03T16:40:42.603Z,-0.67
2023-02-03T16:51:11.340Z,-0.68
2023-02-03T17:01:50.770Z,-0.68
2023-02-03T17:12:15.922Z,-0.77
2023-02-03T17:22:37.494Z,-0.79
2023-02-03T17:32:59.522Z,-0.83
2023-02-03T17:54:04.913Z,-0.89
2023-02-03T18:04:26.187Z,-0.93
2023-02-03T18:14:48.916Z,-0.96
2023-02-03T18:25:12.689Z,-0.98
2023-02-03T18:35:34.339Z,-1.02
2023-02-03T18:45:55.505Z,-1.08
2023-02-03T18:56:25.257Z,-1.11
2023-02-03T19:06:47.685Z,-1.13
2023-02-03T19:17:10.413Z,-1.15
2023-02-03T19:27:32.257Z,-1.19
2023-02-03T19:37:53.867Z,-1.23
2023-02-03T19:48:15.400Z,-1.24
2023-02-03T19:58:36.800Z,-1.28
2023-02-03T20:09:01.124Z,-1.31
2023-02-03T20:19:22.503Z,-1.36
2023-02-03T20:29:44.703Z,-1.40
2023-02-03T20:40:17.224Z,-1.43
2023-02-03T20:50:42.525Z,-1.45
2023-02-03T21:01:18.673Z,-1.45
2023-02-03T21:11:40.329Z,-1.44
2023-02-03T21:22:17.173Z,-1.45
2023-02-03T21:32:40.910Z,-1.54
2023-02-03T21:43:03.446Z,-1.57
2023-02-03T21:53:35.589Z,-1.65
2023-02-03T22:03:59.779Z,-1.67
2023-02-03T22:14:21.335Z,-1.66
2023-02-03T22:24:42.515Z,-1.69
2023-02-03T22:35:04.432Z,-1.66
2023-02-03T22:45:25.715Z,-1.78
2023-02-03T22:55:46.723Z,-2.19
2023-02-03T23:06:07.971Z,-2.52
2023-02-03T23:16:29.036Z,-2.89
2023-02-03T23:26:50.787Z,-2.98
2023-02-03T23:37:12.638Z,-3.21
2023-02-03T23:47:34.937Z,-3.42
2023-02-03T23:57:55.813Z,-3.30
